createdAt,value
2023-02-11T00:02:26.806Z,57.40
2023-02-11T00:03:36.637Z,57.13
2023-02-11T00:04:46.280Z,57.14
2023-02-11T00:07:15.789Z,57.24
2023-02-11T00:08:26.648Z,57.31
2023-02-11T00:09:35.085Z,57.24
2023-02-11T00:10:46.746Z,57.18
2023-02-11T00:11:55.413Z,57.22
2023-02-11T00:13:04.479Z,57.41
2023-02-11T00:14:13.011Z,57.42
2023-02-11T00:15:21.760Z,57.43
2023-02-11T00:16:31.762Z,57.52
2023-02-11T00:18:55.610Z,57.70
2023-02-11T00:21:24.499Z,57.54
2023-02-11T00:22:34.191Z,57.64
2023-02-11T00:23:43.198Z,57.52
2023-02-11T00:24:54.535Z,57.71
2023-02-11T00:27:21.224Z,57.51
2023-02-11T00:28:31.241Z,57.62
2023-02-11T00:29:40.773Z,57.83
2023-02-11T00:30:58.281Z,57.73
2023-02-11T00:32:09.520Z,57.72
2023-02-11T00:33:19.098Z,57.73
2023-02-11T00:34:28.580Z,57.57
2023-02-11T00:35:38.197Z,57.58
2023-02-11T00:36:49.200Z,57.93
2023-02-11T00:37:58.429Z,57.75
2023-02-11T00:40:24.676Z,57.81
2023-02-11T00:41:34.086Z,57.74
2023-02-11T00:42:42.602Z,57.80
2023-02-11T00:43:52.902Z,58.04
2023-02-11T00:45:05.201Z,57.79
2023-02-11T00:46:15.492Z,57.95
2023-02-11T00:47:24.398Z,58.08
2023-02-11T00:50:08.838Z,58.24
2023-02-11T00:51:17.723Z,58.22
2023-02-11T00:52:27.114Z,58.30
2023-02-11T00:53:36.444Z,58.19
2023-02-11T00:54:45.636Z,58.26
2023-02-11T00:55:54.237Z,58.33
2023-02-11T00:57:04.324Z,58.07
2023-02-11T00:58:12.868Z,58.03
2023-02-11T00:59:22.558Z,58.06
2023-02-11T01:00:31.269Z,58.08
2023-02-11T01:01:41.263Z,57.87
2023-02-11T01:02:50.929Z,57.74
2023-02-11T01:03:59.967Z,57.99
2023-02-11T01:05:09.030Z,57.97
2023-02-11T01:06:20.979Z,58.01
2023-02-11T01:07:29.823Z,57.96
2023-02-11T01:08:39.444Z,58.19
2023-02-11T01:09:50.819Z,57.90
2023-02-11T01:11:03.526Z,58.17
2023-02-11T01:12:12.700Z,58.07
2023-02-11T01:14:39.104Z,58.22
2023-02-11T01:16:10.710Z,58.16
2023-02-11T01:17:20.412Z,58.06
2023-02-11T01:18:31.128Z,58.15
2023-02-11T01:19:42.985Z,58.16
2023-02-11T01:20:54.049Z,58.18
2023-02-11T01:22:02.763Z,58.32
2023-02-11T01:23:12.027Z,58.15
2023-02-11T01:24:21.158Z,58.23
2023-02-11T01:25:29.869Z,58.50
2023-02-11T01:26:38.683Z,58.69
2023-02-11T01:27:47.303Z,58.48
2023-02-11T01:28:56.217Z,58.75
2023-02-11T01:30:07.515Z,58.73
2023-02-11T01:31:18.422Z,58.85
2023-02-11T01:32:28.396Z,58.73
2023-02-11T01:33:37.489Z,58.53
2023-02-11T01:34:47.737Z,58.63
2023-02-11T01:36:02.290Z,58.69
2023-02-11T01:37:11.231Z,58.55
2023-02-11T01:38:25.665Z,58.49
2023-02-11T01:39:35.506Z,58.50
2023-02-11T01:40:54.803Z,58.65
2023-02-11T01:43:23.398Z,58.60
2023-02-11T01:45:59.621Z,58.59
2023-02-11T01:47:10.615Z,58.55
2023-02-11T01:48:21.818Z,58.44
2023-02-11T01:49:32.644Z,58.38
2023-02-11T01:52:07.598Z,58.44
2023-02-11T01:53:36.088Z,58.56
2023-02-11T01:55:14.886Z,58.49
2023-02-11T01:56:45.673Z,58.67
2023-02-11T01:57:59.334Z,58.83
2023-02-11T02:01:53.868Z,58.77
2023-02-11T02:03:22.081Z,58.78
2023-02-11T02:04:35.440Z,58.86
2023-02-11T02:05:57.257Z,58.75
2023-02-11T02:07:12.449Z,58.70
2023-02-11T02:09:43.327Z,58.70
2023-02-11T02:10:55.829Z,58.39
2023-02-11T02:12:05.066Z,58.49
2023-02-11T02:13:14.765Z,58.45
2023-02-11T02:14:23.561Z,58.26
2023-02-11T02:15:38.109Z,58.19
2023-02-11T02:16:48.439Z,58.07
2023-02-11T02:19:33.712Z,58.13
2023-02-11T02:21:03.195Z,58.24
2023-02-11T02:22:18.863Z,57.96
2023-02-11T02:25:14.911Z,57.85
2023-02-11T02:26:55.608Z,58.08
2023-02-11T02:28:17.727Z,58.10
2023-02-11T02:29:33.376Z,57.96
2023-02-11T02:32:48.530Z,58.23
2023-02-11T02:34:04.167Z,58.33
2023-02-11T02:35:32.627Z,58.41
2023-02-11T02:36:51.324Z,58.71
2023-02-11T02:38:13.426Z,58.83
2023-02-11T02:39:26.664Z,58.84
2023-02-11T02:40:48.251Z,59.01
2023-02-11T02:41:58.671Z,59.17
2023-02-11T02:43:11.086Z,59.14
2023-02-11T02:44:20.802Z,59.32
2023-02-11T02:45:30.598Z,59.47
2023-02-11T02:46:39.764Z,59.17
2023-02-11T02:47:48.533Z,59.28
2023-02-11T02:48:59.108Z,59.44
2023-02-11T02:50:11.181Z,59.14
2023-02-11T02:51:50.003Z,59.16
2023-02-11T02:54:43.150Z,59.58
2023-02-11T02:56:01.091Z,59.38
2023-02-11T02:57:20.642Z,59.54
2023-02-11T02:58:47.216Z,59.67
2023-02-11T03:00:09.511Z,59.65
2023-02-11T03:01:37.322Z,59.75
2023-02-11T03:03:22.412Z,59.72
2023-02-11T03:04:44.080Z,59.89
2023-02-11T03:06:03.397Z,59.77
2023-02-11T03:07:18.932Z,59.96
2023-02-11T03:09:57.129Z,59.76
2023-02-11T03:11:09.313Z,59.98
2023-02-11T03:12:20.313Z,59.94
2023-02-11T03:13:33.988Z,59.91
2023-02-11T03:14:44.036Z,59.95
2023-02-11T03:15:57.837Z,60.13
2023-02-11T03:17:09.977Z,60.23
2023-02-11T03:18:21.891Z,60.22
2023-02-11T03:20:54.744Z,60.31
2023-02-11T03:22:07.578Z,60.41
2023-02-11T03:24:38.980Z,60.55
2023-02-11T03:27:26.569Z,60.37
2023-02-11T03:30:14.184Z,60.21
2023-02-11T03:31:30.392Z,60.27
2023-02-11T03:32:43.255Z,60.34
2023-02-11T03:34:17.845Z,60.60
2023-02-11T03:35:42.665Z,60.30
2023-02-11T03:36:57.539Z,60.37
2023-02-11T03:39:54.874Z,60.52
2023-02-11T03:41:12.576Z,60.43
2023-02-11T03:42:25.193Z,60.03
2023-02-11T03:43:40.414Z,59.59
2023-02-11T03:44:56.030Z,60.09
2023-02-11T03:46:07.727Z,60.19
2023-02-11T03:47:21.080Z,59.62
2023-02-11T03:48:52.453Z,59.70
2023-02-11T03:50:06.846Z,59.69
2023-02-11T03:51:17.405Z,59.92
2023-02-11T03:52:28.714Z,60.40
2023-02-11T03:53:40.093Z,60.53
2023-02-11T03:54:53.371Z,60.38
2023-02-11T03:56:07.112Z,60.35
2023-02-11T03:57:17.760Z,60.54
2023-02-11T03:58:27.345Z,60.78
2023-02-11T03:59:57.915Z,60.78
2023-02-11T04:01:09.625Z,60.99
2023-02-11T04:02:19.873Z,61.26
2023-02-11T04:03:28.686Z,61.29
2023-02-11T04:04:37.760Z,61.25
2023-02-11T04:07:08.164Z,61.60
2023-02-11T04:08:17.701Z,61.62
2023-02-11T04:09:26.793Z,61.73
2023-02-11T04:10:37.172Z,61.57
2023-02-11T04:11:45.708Z,61.59
2023-02-11T04:12:54.658Z,61.67
2023-02-11T04:14:04.782Z,61.45
2023-02-11T04:15:13.829Z,61.64
2023-02-11T04:17:39.469Z,61.52
2023-02-11T04:18:48.479Z,61.85
2023-02-11T04:19:58.164Z,61.51
2023-02-11T04:21:06.914Z,61.38
2023-02-11T04:22:16.724Z,61.60
2023-02-11T04:23:26.399Z,61.83
2023-02-11T04:24:36.536Z,61.86
2023-02-11T04:25:46.186Z,61.77
2023-02-11T04:26:55.945Z,61.67
2023-02-11T04:28:06.863Z,61.90
2023-02-11T04:29:15.819Z,61.84
2023-02-11T04:30:28.570Z,61.58
2023-02-11T04:31:38.389Z,61.34
2023-02-11T04:32:47.195Z,61.13
2023-02-11T04:33:56.440Z,61.10
2023-02-11T04:35:06.278Z,61.11
2023-02-11T04:37:31.064Z,61.13
2023-02-11T04:38:41.128Z,61.53
2023-02-11T04:39:50.877Z,61.47
2023-02-11T04:41:00.581Z,61.16
2023-02-11T04:42:09.736Z,61.25
2023-02-11T04:43:18.822Z,61.29
2023-02-11T04:45:42.613Z,61.03
2023-02-11T04:46:52.102Z,61.02
2023-02-11T04:48:04.960Z,60.99
2023-02-11T04:49:15.412Z,61.22
2023-02-11T04:50:25.346Z,61.45
2023-02-11T04:51:34.463Z,61.66
2023-02-11T04:52:43.546Z,61.38
2023-02-11T04:53:52.641Z,61.58
2023-02-11T04:55:02.433Z,61.42
2023-02-11T04:56:12.478Z,61.24
2023-02-11T04:57:21.103Z,61.08
2023-02-11T04:58:31.085Z,61.17
2023-02-11T05:00:56.459Z,61.18
2023-02-11T05:02:07.252Z,61.60
2023-02-11T05:03:16.827Z,62.00
2023-02-11T05:04:26.131Z,62.40
2023-02-11T05:05:40.922Z,62.47
2023-02-11T05:06:49.726Z,62.51
2023-02-11T05:07:59.449Z,62.66
2023-02-11T05:09:10.165Z,62.55
2023-02-11T05:10:20.064Z,62.39
2023-02-11T05:11:28.840Z,62.39
2023-02-11T05:12:38.385Z,62.56
2023-02-11T05:13:47.641Z,62.64
2023-02-11T05:14:57.237Z,62.45
2023-02-11T05:16:07.436Z,62.45
2023-02-11T05:17:17.105Z,62.59
2023-02-11T05:18:26.777Z,63.01
2023-02-11T05:19:39.259Z,63.08
2023-02-11T05:20:48.873Z,63.26
2023-02-11T05:22:03.121Z,63.11
2023-02-11T05:23:09.963Z,63.41
2023-02-11T05:24:19.719Z,63.64
2023-02-11T05:25:28.349Z,63.85
2023-02-11T05:26:38.048Z,64.06
2023-02-11T05:27:47.811Z,64.11
2023-02-11T05:29:01.229Z,63.85
2023-02-11T05:30:11.178Z,63.89
2023-02-11T05:31:20.234Z,63.86
2023-02-11T05:32:31.559Z,63.95
2023-02-11T05:33:41.155Z,63.99
2023-02-11T05:36:09.104Z,63.84
2023-02-11T05:37:17.949Z,63.86
2023-02-11T05:38:27.443Z,64.06
2023-02-11T05:39:38.105Z,64.17
2023-02-11T05:40:47.545Z,64.31
2023-02-11T05:41:57.278Z,64.56
2023-02-11T05:43:08.069Z,64.69
2023-02-11T05:45:31.692Z,64.56
2023-02-11T05:46:41.057Z,64.38
2023-02-11T05:47:50.281Z,64.78
2023-02-11T05:48:59.539Z,64.97
2023-02-11T05:50:09.557Z,64.74
2023-02-11T05:51:18.666Z,64.65
2023-02-11T05:52:27.276Z,64.57
2023-02-11T05:53:36.316Z,65.08
2023-02-11T05:54:45.679Z,65.16
2023-02-11T05:55:55.331Z,65.17
2023-02-11T05:58:19.483Z,64.87
2023-02-11T05:59:28.734Z,64.96
2023-02-11T06:00:37.885Z,64.87
2023-02-11T06:01:46.665Z,64.74
2023-02-11T06:02:55.943Z,64.55
2023-02-11T06:04:04.956Z,64.65
2023-02-11T06:05:14.945Z,64.90
2023-02-11T06:06:25.818Z,65.16
2023-02-11T06:07:34.434Z,65.54
2023-02-11T06:09:58.942Z,64.93
2023-02-11T06:11:08.945Z,65.03
2023-02-11T06:12:19.211Z,65.38
2023-02-11T06:13:28.277Z,65.34
2023-02-11T06:14:37.965Z,64.82
2023-02-11T06:15:58.107Z,64.91
2023-02-11T06:17:07.262Z,64.30
2023-02-11T06:18:17.192Z,64.43
2023-02-11T06:19:27.576Z,64.69
2023-02-11T06:20:40.231Z,63.75
2023-02-11T06:21:49.437Z,63.80
2023-02-11T06:22:57.995Z,64.09
2023-02-11T06:24:08.274Z,63.50
2023-02-11T06:25:17.938Z,63.62
2023-02-11T06:26:26.587Z,63.88
2023-02-11T06:27:35.154Z,63.80
2023-02-11T06:28:45.822Z,63.28
2023-02-11T06:29:56.444Z,63.22
2023-02-11T06:31:07.134Z,63.33
2023-02-11T06:32:36.993Z,63.36
2023-02-11T06:33:27.632Z,63.06
2023-02-11T06:34:36.889Z,62.14
2023-02-11T06:35:45.895Z,61.98
2023-02-11T06:36:55.258Z,62.19
2023-02-11T06:38:05.315Z,62.41
2023-02-11T06:39:14.990Z,62.49
2023-02-11T06:41:44.495Z,63.05
2023-02-11T06:42:52.996Z,63.13
2023-02-11T06:44:01.651Z,63.56
2023-02-11T06:45:13.068Z,63.31
2023-02-11T06:46:23.593Z,63.23
2023-02-11T06:47:32.324Z,63.34
2023-02-11T06:48:50.801Z,63.45
2023-02-11T06:50:00.491Z,63.57
2023-02-11T06:51:12.726Z,63.06
2023-02-11T06:52:21.383Z,62.92
2023-02-11T06:53:31.334Z,63.15
2023-02-11T06:54:39.857Z,62.58
2023-02-11T06:55:48.796Z,62.21
2023-02-11T06:56:59.002Z,62.76
2023-02-11T06:59:22.483Z,62.12
2023-02-11T07:00:31.311Z,62.45
2023-02-11T07:01:40.331Z,62.75
2023-02-11T07:04:04.331Z,61.89
2023-02-11T07:05:12.840Z,62.48
2023-02-11T07:06:27.109Z,62.85
2023-02-11T07:07:37.455Z,61.91
2023-02-11T07:08:48.164Z,61.71
2023-02-11T07:11:14.727Z,62.29
2023-02-11T07:12:24.130Z,62.34
2023-02-11T07:13:33.758Z,62.54
2023-02-11T07:14:42.631Z,61.73
2023-02-11T07:15:52.623Z,61.79
2023-02-11T07:17:05.366Z,61.96
2023-02-11T07:18:15.007Z,61.86
2023-02-11T07:19:24.640Z,61.96
2023-02-11T07:20:33.739Z,62.28
2023-02-11T07:21:42.447Z,62.33
2023-02-11T07:22:51.850Z,61.93
2023-02-11T07:24:02.035Z,62.26
2023-02-11T07:25:12.749Z,61.01
2023-02-11T07:26:23.512Z,61.02
2023-02-11T07:27:32.179Z,61.38
2023-02-11T07:28:41.894Z,61.72
2023-02-11T07:29:51.412Z,62.10
2023-02-11T07:32:29.488Z,61.37
2023-02-11T07:33:40.353Z,61.54
2023-02-11T07:34:50.065Z,61.46
2023-02-11T07:36:01.286Z,61.68
2023-02-11T07:37:10.393Z,61.74
2023-02-11T07:38:19.411Z,61.86
2023-02-11T07:39:29.049Z,62.00
2023-02-11T07:40:37.831Z,61.97
2023-02-11T07:43:03.443Z,61.49
2023-02-11T07:44:11.949Z,61.20
2023-02-11T07:45:20.715Z,61.57
2023-02-11T07:46:30.868Z,61.90
2023-02-11T07:47:41.699Z,62.14
2023-02-11T07:48:51.034Z,62.16
2023-02-11T07:50:00.655Z,62.17
2023-02-11T07:51:25.756Z,61.91
2023-02-11T07:52:34.491Z,62.00
2023-02-11T07:53:44.273Z,62.27
2023-02-11T07:56:10.983Z,62.85
2023-02-11T07:58:34.729Z,62.79
2023-02-11T07:59:43.308Z,62.64
2023-02-11T08:00:52.265Z,62.60
2023-02-11T08:03:15.639Z,62.83
2023-02-11T08:04:24.671Z,62.92
2023-02-11T08:05:34.232Z,62.87
2023-02-11T08:06:44.203Z,62.86
2023-02-11T08:07:54.447Z,62.99
2023-02-11T08:09:07.025Z,63.43
2023-02-11T08:10:16.823Z,63.03
2023-02-11T08:11:29.061Z,63.15
2023-02-11T08:12:37.563Z,62.89
2023-02-11T08:13:46.875Z,62.75
2023-02-11T08:14:55.841Z,62.01
2023-02-11T08:16:05.772Z,61.97
2023-02-11T08:17:15.470Z,62.10
2023-02-11T08:18:24.484Z,62.26
2023-02-11T08:19:35.163Z,62.21
2023-02-11T08:20:44.855Z,62.12
2023-02-11T08:22:00.568Z,61.88
2023-02-11T08:23:09.546Z,62.03
2023-02-11T08:24:19.112Z,62.07
2023-02-11T08:25:28.366Z,62.32
2023-02-11T08:26:37.431Z,62.60
2023-02-11T08:27:46.538Z,62.68
2023-02-11T08:28:56.815Z,63.17
2023-02-11T08:30:06.853Z,62.73
2023-02-11T08:31:18.673Z,62.71
2023-02-11T08:32:27.627Z,62.66
2023-02-11T08:34:52.712Z,62.44
2023-02-11T08:36:03.409Z,62.33
2023-02-11T08:37:12.802Z,61.71
2023-02-11T08:38:21.310Z,62.15
2023-02-11T08:39:30.450Z,62.26
2023-02-11T08:40:40.180Z,61.97
2023-02-11T08:41:51.983Z,61.08
2023-02-11T08:43:01.591Z,61.40
2023-02-11T08:44:12.015Z,61.59
2023-02-11T08:45:20.628Z,62.22
2023-02-11T08:46:30.460Z,62.40
2023-02-11T08:48:56.305Z,61.44
2023-02-11T08:50:06.187Z,61.53
2023-02-11T08:52:34.928Z,62.13
2023-02-11T08:53:45.749Z,62.00
2023-02-11T08:54:55.462Z,61.80
2023-02-11T08:57:21.003Z,61.86
2023-02-11T08:58:29.678Z,61.22
2023-02-11T08:59:40.615Z,61.44
2023-02-11T09:00:50.579Z,61.76
2023-02-11T09:03:26.001Z,61.98
2023-02-11T09:04:37.952Z,62.31
2023-02-11T09:07:07.378Z,62.81
2023-02-11T09:08:18.710Z,62.92
2023-02-11T09:09:28.938Z,63.48
2023-02-11T09:10:38.921Z,63.68
2023-02-11T09:11:47.793Z,63.97
2023-02-11T09:12:56.500Z,64.24
2023-02-11T09:14:05.235Z,63.94
2023-02-11T09:15:15.754Z,63.98
2023-02-11T09:16:30.995Z,63.74
2023-02-11T09:17:39.897Z,63.42
2023-02-11T09:18:49.064Z,63.51
2023-02-11T09:19:58.224Z,63.60
2023-02-11T09:21:10.228Z,63.84
2023-02-11T09:22:21.297Z,64.29
2023-02-11T09:23:30.437Z,64.38
2023-02-11T09:24:41.378Z,64.01
2023-02-11T09:25:50.920Z,64.16
2023-02-11T09:27:00.144Z,64.53
2023-02-11T09:28:09.542Z,64.61
2023-02-11T09:29:18.955Z,64.68
2023-02-11T09:30:28.346Z,64.74
2023-02-11T09:31:38.603Z,64.08
2023-02-11T09:32:48.810Z,64.15
2023-02-11T09:34:04.209Z,64.10
2023-02-11T09:35:15.917Z,63.24
2023-02-11T09:36:28.534Z,63.04
2023-02-11T09:37:37.603Z,63.42
2023-02-11T09:38:48.500Z,63.63
2023-02-11T09:39:56.798Z,63.64
2023-02-11T09:42:45.796Z,63.24
2023-02-11T09:45:17.424Z,63.17
2023-02-11T09:49:48.482Z,63.32
2023-02-11T09:52:33.819Z,64.09
2023-02-11T09:53:44.944Z,64.07
2023-02-11T09:55:03.093Z,64.15
2023-02-11T09:56:15.012Z,64.01
2023-02-11T09:58:45.546Z,64.47
2023-02-11T09:59:55.635Z,64.69
2023-02-11T10:01:23.399Z,64.71
2023-02-11T10:04:17.117Z,65.78
2023-02-11T10:07:26.498Z,65.45
2023-02-11T10:08:58.626Z,65.35
2023-02-11T10:10:15.055Z,65.57
2023-02-11T10:11:42.518Z,65.77
2023-02-11T10:13:01.005Z,65.59
2023-02-11T10:15:50.406Z,66.10
2023-02-11T10:17:38.406Z,65.98
2023-02-11T10:19:13.446Z,65.98
2023-02-11T10:20:38.594Z,65.82
2023-02-11T10:22:00.274Z,65.92
2023-02-11T10:23:25.383Z,66.01
2023-02-11T10:24:35.407Z,66.55
2023-02-11T10:25:56.925Z,66.83
2023-02-11T10:28:34.470Z,66.47
2023-02-11T10:29:47.352Z,66.66
2023-02-11T10:31:06.504Z,66.55
2023-02-11T10:32:27.594Z,66.64
2023-02-11T10:34:01.925Z,66.73
2023-02-11T10:35:15.525Z,66.81
2023-02-11T10:36:28.492Z,67.54
2023-02-11T10:37:38.032Z,67.68
2023-02-11T10:38:47.568Z,67.13
2023-02-11T10:39:56.884Z,67.21
2023-02-11T10:41:09.416Z,66.87
2023-02-11T10:42:18.526Z,67.07
2023-02-11T10:43:30.968Z,67.19
2023-02-11T10:45:00.675Z,67.29
2023-02-11T10:46:19.493Z,67.04
2023-02-11T10:48:52.427Z,67.26
2023-02-11T10:50:03.306Z,67.23
2023-02-11T10:52:30.627Z,67.71
2023-02-11T10:53:39.435Z,67.84
2023-02-11T10:55:03.995Z,67.73
2023-02-11T10:56:28.474Z,67.74
2023-02-11T10:57:42.082Z,67.98
2023-02-11T11:00:41.088Z,68.28
2023-02-11T11:03:20.522Z,68.61
2023-02-11T11:04:41.886Z,68.52
2023-02-11T11:06:01.323Z,68.44
2023-02-11T11:07:19.459Z,68.81
2023-02-11T11:10:09.712Z,69.48
2023-02-11T11:11:24.891Z,69.00
2023-02-11T11:12:46.701Z,70.18
2023-02-11T11:15:22.275Z,69.93
2023-02-11T11:18:20.980Z,69.87
2023-02-11T11:19:24.381Z,69.17
2023-02-11T11:20:35.478Z,69.02
2023-02-11T11:23:21.075Z,68.90
2023-02-11T11:24:34.200Z,68.40
2023-02-11T11:27:03.961Z,69.10
2023-02-11T11:28:26.767Z,68.83
2023-02-11T11:30:59.165Z,69.20
2023-02-11T11:32:20.534Z,68.99
2023-02-11T11:34:57.011Z,68.90
2023-02-11T11:36:10.522Z,68.89
2023-02-11T11:37:23.790Z,68.42
2023-02-11T11:38:36.476Z,68.70
2023-02-11T11:41:22.682Z,67.69
2023-02-11T11:42:55.438Z,67.35
2023-02-11T11:44:26.733Z,67.67
2023-02-11T11:45:37.676Z,67.64
2023-02-11T11:48:19.876Z,67.92
2023-02-11T11:52:22.311Z,68.09
2023-02-11T11:53:44.019Z,68.20
2023-02-11T11:55:08.432Z,67.82
2023-02-11T11:57:39.981Z,67.54
2023-02-11T12:00:07.532Z,68.25
2023-02-11T12:01:53.701Z,68.67
2023-02-11T12:04:27.438Z,68.71
2023-02-11T12:06:00.314Z,68.58
2023-02-11T12:07:26.021Z,68.19
2023-02-11T12:08:51.427Z,68.66
2023-02-11T12:10:29.564Z,68.30
2023-02-11T12:12:07.977Z,68.55
2023-02-11T12:13:29.537Z,68.64
2023-02-11T12:15:01.872Z,68.33
2023-02-11T12:16:23.748Z,68.29
2023-02-11T12:17:58.723Z,68.15
2023-02-11T12:21:05.946Z,68.57
2023-02-11T12:22:35.407Z,68.91
2023-02-11T12:23:58.062Z,68.81
2023-02-11T12:26:39.051Z,68.52
2023-02-11T12:29:22.499Z,68.47
2023-02-11T12:30:50.587Z,68.52
2023-02-11T12:33:51.743Z,68.49
2023-02-11T12:37:02.539Z,69.14
2023-02-11T12:39:57.975Z,69.29
2023-02-11T12:43:16.537Z,69.47
2023-02-11T12:46:11.474Z,69.75
2023-02-11T12:49:33.110Z,69.78
2023-02-11T12:52:37.750Z,69.74
2023-02-11T12:54:16.782Z,69.83
2023-02-11T12:55:34.182Z,69.36
2023-02-11T12:56:50.410Z,70.06
2023-02-11T12:58:01.753Z,69.95
2023-02-11T12:59:15.093Z,69.71
2023-02-11T13:00:46.877Z,69.43
2023-02-11T13:01:57.693Z,69.31
2023-02-11T13:03:19.581Z,69.73
2023-02-11T13:05:57.941Z,69.74
2023-02-11T13:07:13.565Z,69.77
2023-02-11T13:10:17.487Z,69.04
2023-02-11T13:11:30.742Z,69.20
2023-02-11T13:13:04.195Z,68.86
2023-02-11T13:14:22.748Z,68.42
2023-02-11T13:15:33.108Z,68.11
2023-02-11T13:16:48.664Z,68.37
2023-02-11T13:19:43.178Z,68.37
2023-02-11T13:21:01.731Z,68.67
2023-02-11T13:22:14.040Z,69.05
2023-02-11T13:24:54.869Z,68.42
2023-02-11T13:26:25.719Z,68.33
2023-02-11T13:27:44.065Z,68.59
2023-02-11T13:28:57.131Z,68.24
2023-02-11T13:31:31.965Z,67.51
2023-02-11T13:33:02.826Z,67.68
2023-02-11T13:34:26.572Z,67.57
2023-02-11T13:36:57.584Z,68.14
2023-02-11T13:38:21.138Z,67.83
2023-02-11T13:40:47.668Z,67.99
2023-02-11T13:42:03.832Z,67.45
2023-02-11T13:43:23.280Z,66.98
2023-02-11T13:44:34.671Z,67.28
2023-02-11T13:45:47.168Z,67.33
2023-02-11T13:48:24.988Z,68.08
2023-02-11T13:49:42.289Z,67.67
2023-02-11T13:50:57.938Z,67.67
2023-02-11T13:52:19.191Z,67.71
2023-02-11T13:53:29.198Z,67.66
2023-02-11T13:54:39.712Z,67.76
2023-02-11T13:55:52.129Z,67.71
2023-02-11T13:57:21.210Z,67.12
2023-02-11T13:58:35.429Z,67.02
2023-02-11T13:59:49.503Z,66.99
2023-02-11T14:00:59.431Z,67.57
2023-02-11T14:02:45.977Z,67.36
2023-02-11T14:06:37.503Z,67.88
2023-02-11T14:08:30.552Z,67.70
2023-02-11T14:09:40.445Z,67.74
2023-02-11T14:10:51.798Z,67.28
2023-02-11T14:12:27.523Z,67.27
2023-02-11T14:13:39.269Z,66.84
2023-02-11T14:15:10.249Z,67.37
2023-02-11T14:16:35.593Z,67.57
2023-02-11T14:17:34.705Z,67.39
2023-02-11T14:18:54.149Z,67.32
2023-02-11T14:21:32.509Z,67.41
2023-02-11T14:22:46.564Z,67.30
2023-02-11T14:24:07.630Z,66.94
2023-02-11T14:25:20.041Z,66.65
2023-02-11T14:27:55.421Z,66.31
2023-02-11T14:35:02.457Z,65.84
2023-02-11T14:36:36.461Z,66.07
2023-02-11T14:37:53.150Z,65.42
2023-02-11T14:39:06.533Z,65.98
2023-02-11T14:41:48.431Z,65.59
2023-02-11T14:44:19.772Z,65.35
2023-02-11T14:45:31.095Z,65.16
2023-02-11T14:48:16.634Z,65.39
2023-02-11T14:49:38.640Z,65.60
2023-02-11T14:52:18.824Z,65.49
2023-02-11T14:53:32.788Z,65.45
2023-02-11T14:54:44.381Z,65.51
2023-02-11T14:55:55.064Z,65.52
2023-02-11T14:57:08.966Z,65.56
2023-02-11T15:00:09.161Z,65.39
2023-02-11T15:01:34.659Z,65.10
2023-02-11T15:02:45.014Z,65.55
2023-02-11T15:03:56.027Z,65.16
2023-02-11T15:05:26.696Z,65.08
2023-02-11T15:06:45.304Z,64.95
2023-02-11T15:08:00.512Z,64.57
2023-02-11T15:09:43.824Z,64.89
2023-02-11T15:10:54.738Z,64.69
2023-02-11T15:12:04.176Z,65.17
2023-02-11T15:13:22.504Z,65.23
2023-02-11T15:14:34.559Z,65.01
2023-02-11T15:15:46.042Z,64.33
2023-02-11T15:16:58.594Z,64.32
2023-02-11T15:18:10.072Z,64.11
2023-02-11T15:19:34.125Z,64.32
2023-02-11T15:20:42.431Z,65.18
2023-02-11T15:21:52.862Z,64.65
2023-02-11T15:23:05.433Z,64.79
2023-02-11T15:24:28.355Z,64.56
2023-02-11T15:25:44.454Z,64.73
2023-02-11T15:27:03.642Z,65.08
2023-02-11T15:28:24.843Z,64.98
2023-02-11T15:29:40.133Z,64.64
2023-02-11T15:31:04.560Z,64.32
2023-02-11T15:32:20.276Z,64.31
2023-02-11T15:33:31.957Z,64.11
2023-02-11T15:34:42.581Z,63.98
2023-02-11T15:35:51.425Z,63.65
2023-02-11T15:37:02.081Z,63.99
2023-02-11T15:39:36.274Z,63.41
2023-02-11T15:40:57.944Z,63.63
2023-02-11T15:42:26.823Z,63.94
2023-02-11T15:43:47.345Z,63.88
2023-02-11T15:45:17.641Z,63.15
2023-02-11T15:47:52.641Z,62.43
2023-02-11T15:50:26.398Z,61.89
2023-02-11T15:51:37.321Z,61.76
2023-02-11T15:52:47.156Z,61.77
2023-02-11T15:53:59.000Z,61.13
2023-02-11T15:56:44.258Z,61.53
2023-02-11T15:57:59.342Z,61.50
2023-02-11T15:59:20.531Z,61.35
2023-02-11T16:00:34.706Z,61.20
2023-02-11T16:01:46.130Z,60.57
2023-02-11T16:02:55.926Z,60.69
2023-02-11T16:04:05.188Z,60.54
2023-02-11T16:06:50.392Z,60.19
2023-02-11T16:08:01.009Z,60.16
2023-02-11T16:09:13.805Z,60.17
2023-02-11T16:11:52.139Z,59.71
2023-02-11T16:13:08.171Z,59.59
2023-02-11T16:14:33.402Z,59.70
2023-02-11T16:18:45.240Z,59.42
2023-02-11T16:19:54.108Z,59.12
2023-02-11T16:21:04.570Z,59.49
2023-02-11T16:23:41.309Z,59.26
2023-02-11T16:24:52.666Z,59.32
2023-02-11T16:26:07.230Z,58.94
2023-02-11T16:28:46.523Z,58.53
2023-02-11T16:29:56.454Z,58.76
2023-02-11T16:31:06.646Z,58.72
2023-02-11T16:32:22.035Z,58.51
2023-02-11T16:33:31.068Z,58.23
2023-02-11T16:34:40.056Z,58.70
2023-02-11T16:35:48.999Z,58.18
2023-02-11T16:38:14.012Z,58.21
2023-02-11T16:39:23.654Z,57.95
2023-02-11T16:41:50.335Z,57.64
2023-02-11T16:42:59.574Z,57.31
2023-02-11T16:44:08.436Z,57.29
2023-02-11T16:45:17.248Z,57.25
2023-02-11T16:46:27.532Z,57.25
2023-02-11T16:47:38.999Z,57.28
2023-02-11T16:48:47.806Z,57.48
2023-02-11T16:49:58.247Z,57.22
2023-02-11T16:51:10.910Z,57.12
2023-02-11T16:52:21.792Z,57.57
2023-02-11T16:53:30.998Z,57.43
2023-02-11T16:54:40.169Z,57.36
2023-02-11T16:57:20.097Z,57.05
2023-02-11T16:58:28.616Z,57.36
2023-02-11T16:59:37.117Z,57.50
2023-02-11T17:00:49.113Z,57.62
2023-02-11T17:01:58.454Z,57.63
2023-02-11T17:03:09.218Z,57.50
2023-02-11T17:04:31.141Z,57.54
2023-02-11T17:05:54.663Z,57.64
2023-02-11T17:06:52.204Z,58.39
2023-02-11T17:09:30.354Z,58.38
2023-02-11T17:10:38.272Z,58.44
2023-02-11T17:11:48.321Z,57.98
2023-02-11T17:12:57.471Z,58.22
2023-02-11T17:14:06.337Z,58.30
2023-02-11T17:15:16.180Z,58.35
2023-02-11T17:16:27.241Z,58.35
2023-02-11T17:17:36.649Z,58.56
2023-02-11T17:18:49.045Z,58.36
2023-02-11T17:19:58.064Z,58.04
2023-02-11T17:21:07.899Z,58.00
2023-02-11T17:23:32.182Z,57.92
2023-02-11T17:24:41.296Z,58.79
2023-02-11T17:25:56.395Z,58.55
2023-02-11T17:27:05.803Z,58.37
2023-02-11T17:28:14.365Z,58.05
2023-02-11T17:29:25.076Z,58.07
2023-02-11T17:30:34.036Z,58.16
2023-02-11T17:31:43.372Z,57.96
2023-02-11T17:32:52.380Z,57.45
2023-02-11T17:34:02.821Z,57.67
2023-02-11T17:35:12.351Z,57.59
2023-02-11T17:36:22.550Z,57.52
2023-02-11T17:37:32.157Z,57.38
2023-02-11T17:38:43.008Z,57.20
2023-02-11T17:39:51.892Z,57.31
2023-02-11T17:41:03.679Z,57.17
2023-02-11T17:42:14.080Z,57.19
2023-02-11T17:44:38.898Z,56.65
2023-02-11T17:47:03.482Z,56.74
2023-02-11T17:48:12.106Z,56.94
2023-02-11T17:49:20.652Z,57.05
2023-02-11T17:50:30.686Z,56.69
2023-02-11T17:52:54.986Z,56.85
2023-02-11T17:55:24.732Z,56.58
2023-02-11T17:56:36.403Z,56.64
2023-02-11T17:57:46.028Z,56.79
2023-02-11T17:58:55.129Z,56.81
2023-02-11T18:00:06.341Z,56.66
2023-02-11T18:01:17.794Z,56.59
2023-02-11T18:02:27.710Z,56.40
2023-02-11T18:03:36.806Z,56.72
2023-02-11T18:04:46.362Z,56.77
2023-02-11T18:07:15.033Z,57.27
2023-02-11T18:08:24.099Z,57.08
2023-02-11T18:09:39.014Z,56.83
2023-02-11T18:10:48.769Z,56.70
2023-02-11T18:11:58.085Z,56.75
2023-02-11T18:13:07.496Z,56.81
2023-02-11T18:14:16.175Z,56.93
2023-02-11T18:15:24.908Z,56.92
2023-02-11T18:16:36.843Z,56.63
2023-02-11T18:17:47.369Z,56.60
2023-02-11T18:18:57.968Z,56.59
2023-02-11T18:20:09.195Z,56.62
2023-02-11T18:21:20.537Z,56.81
2023-02-11T18:22:32.059Z,56.59
2023-02-11T18:23:41.076Z,56.89
2023-02-11T18:26:12.804Z,56.71
2023-02-11T18:27:22.322Z,57.02
2023-02-11T18:28:31.035Z,57.01
2023-02-11T18:29:40.054Z,56.94
2023-02-11T18:32:14.602Z,56.88
2023-02-11T18:33:24.170Z,56.79
2023-02-11T18:34:33.230Z,56.93
2023-02-11T18:35:42.480Z,57.28
2023-02-11T18:36:51.517Z,57.21
2023-02-11T18:38:00.933Z,57.45
2023-02-11T18:39:10.170Z,57.44
2023-02-11T18:40:20.727Z,57.67
2023-02-11T18:42:46.965Z,57.59
2023-02-11T18:43:58.327Z,57.49
2023-02-11T18:45:09.759Z,57.36
2023-02-11T18:46:20.962Z,57.61
2023-02-11T18:47:33.228Z,57.54
2023-02-11T18:48:47.042Z,57.57